createdAt,value
2022-08-12T00:03:20.765Z,2.10
2022-08-12T00:06:42.591Z,2.20
2022-08-12T00:10:02.963Z,2.30
2022-08-12T00:13:24.043Z,2.20
2022-08-12T00:16:45.899Z,2.20
2022-08-12T00:20:07.689Z,2.13
2022-08-12T00:23:28.094Z,2.30
2022-08-12T00:26:48.321Z,2.40
2022-08-12T00:30:09.354Z,2.10
2022-08-12T00:33:38.613Z,2.30
2022-08-12T00:37:13.439Z,1.98
2022-08-12T00:40:34.608Z,2.20
2022-08-12T00:43:38.330Z,2.22
2022-08-12T00:46:50.635Z,2.20
2022-08-12T00:49:55.280Z,2.30
2022-08-12T00:53:01.394Z,2.40
2022-08-12T00:56:05.932Z,2.25
2022-08-12T00:59:10.152Z,2.67
2022-08-12T01:02:17.399Z,2.22
2022-08-12T01:05:39.896Z,2.30
2022-08-12T01:09:01.458Z,2.40
2022-08-12T01:12:06.525Z,2.22
2022-08-12T01:15:12.980Z,2.10
2022-08-12T01:18:16.785Z,2.30
2022-08-12T01:21:42.633Z,2.00
2022-08-12T01:24:56.903Z,2.20
2022-08-12T01:28:01.979Z,2.30
2022-08-12T01:31:06.870Z,2.40
2022-08-12T01:34:36.030Z,2.47
2022-08-12T01:37:38.227Z,2.13
2022-08-12T01:40:47.981Z,2.30
2022-08-12T01:43:53.329Z,2.25
2022-08-12T01:47:06.727Z,2.50
2022-08-12T01:50:22.112Z,2.80
2022-08-12T01:53:27.487Z,2.35
2022-08-12T01:56:39.861Z,2.30
2022-08-12T01:59:47.392Z,2.50
2022-08-12T02:02:58.858Z,2.60
2022-08-12T02:06:28.579Z,2.35
2022-08-12T02:10:05.877Z,2.50
2022-08-12T02:13:42.070Z,2.50
2022-08-12T02:16:55.265Z,2.40
2022-08-12T02:20:11.110Z,2.58
2022-08-12T02:23:15.390Z,2.47
2022-08-12T02:26:19.374Z,2.28
2022-08-12T02:29:24.041Z,2.40
2022-08-12T02:32:27.579Z,2.50
2022-08-12T02:35:32.865Z,2.42
2022-08-12T02:38:37.148Z,2.50
2022-08-12T02:41:44.880Z,2.10
2022-08-12T02:44:54.050Z,2.60
2022-08-12T02:48:06.466Z,2.40
2022-08-12T02:51:13.018Z,2.70
2022-08-12T02:54:15.843Z,2.90
2022-08-12T02:57:20.846Z,2.53
2022-08-12T03:00:26.850Z,2.43
2022-08-12T03:03:32.950Z,2.50
2022-08-12T03:06:44.668Z,2.83
2022-08-12T03:10:04.218Z,2.80
2022-08-12T03:13:09.517Z,3.00
2022-08-12T03:16:14.641Z,2.70
2022-08-12T03:19:21.293Z,2.50
2022-08-12T03:22:25.061Z,2.80
2022-08-12T03:25:27.892Z,2.60
2022-08-12T03:28:50.535Z,2.45
2022-08-12T03:32:00.887Z,2.67
2022-08-12T03:35:07.886Z,2.42
2022-08-12T03:38:16.116Z,2.55
2022-08-12T03:41:35.681Z,2.60
2022-08-12T03:44:59.315Z,2.80
2022-08-12T03:48:25.854Z,2.85
2022-08-12T03:51:46.164Z,3.17
2022-08-12T03:55:06.806Z,2.90
2022-08-12T03:58:28.121Z,2.90
2022-08-12T04:01:31.817Z,2.90
2022-08-12T04:04:47.256Z,2.92
2022-08-12T04:07:57.856Z,2.73
2022-08-12T04:11:18.605Z,2.83
2022-08-12T04:14:22.933Z,2.78
2022-08-12T04:17:28.329Z,3.00
2022-08-12T04:20:33.318Z,2.88
2022-08-12T04:23:38.319Z,3.10
2022-08-12T04:26:40.952Z,3.00
2022-08-12T04:30:29.242Z,3.20
2022-08-12T04:33:10.101Z,2.72
2022-08-12T04:36:14.359Z,3.05
2022-08-12T04:39:18.728Z,3.20
2022-08-12T04:42:21.832Z,2.88
2022-08-12T04:45:24.921Z,3.00
2022-08-12T04:48:27.706Z,3.10
2022-08-12T04:51:33.224Z,3.20
2022-08-12T04:54:36.673Z,3.37
2022-08-12T04:57:39.677Z,3.08
2022-08-12T05:00:42.485Z,3.17
2022-08-12T05:03:46.275Z,3.35
2022-08-12T05:06:51.407Z,3.20
2022-08-12T05:09:59.829Z,3.30
2022-08-12T05:13:18.868Z,3.05
2022-08-12T05:16:29.973Z,3.60
2022-08-12T05:19:35.694Z,3.70
2022-08-12T05:22:41.491Z,3.33
2022-08-12T05:25:46.547Z,3.10
2022-08-12T05:28:49.981Z,3.05
2022-08-12T05:31:57.056Z,3.05
2022-08-12T05:34:59.679Z,3.00
2022-08-12T05:38:17.831Z,3.00
2022-08-12T05:41:20.839Z,2.80
2022-08-12T05:44:23.807Z,2.92
2022-08-12T05:47:48.725Z,2.95
2022-08-12T05:50:52.705Z,3.10
2022-08-12T05:53:58.563Z,3.33
2022-08-12T05:57:02.349Z,3.03
2022-08-12T06:00:07.166Z,2.80
2022-08-12T06:03:10.067Z,3.00
2022-08-12T06:06:13.116Z,2.45
2022-08-12T06:09:17.156Z,2.85
2022-08-12T06:12:23.603Z,3.13
2022-08-12T06:15:26.605Z,2.85
2022-08-12T06:18:31.068Z,2.65
2022-08-12T06:21:34.866Z,2.80
2022-08-12T06:24:38.885Z,2.92
2022-08-12T06:28:06.202Z,2.97
2022-08-12T06:31:25.436Z,3.10
2022-08-12T06:35:23.977Z,2.90
2022-08-12T06:37:58.884Z,2.90
2022-08-12T06:41:21.140Z,2.90
2022-08-12T06:44:23.814Z,2.27
2022-08-12T06:47:26.648Z,2.67
2022-08-12T06:50:31.035Z,3.05
2022-08-12T06:53:37.376Z,2.60
2022-08-12T07:00:05.124Z,2.77
2022-08-12T07:03:22.710Z,2.40
2022-08-12T07:06:26.838Z,2.88
2022-08-12T07:10:01.422Z,2.85
2022-08-12T07:12:55.886Z,2.92
2022-08-12T07:15:58.698Z,2.80
2022-08-12T07:19:02.038Z,2.40
2022-08-12T07:22:06.492Z,2.55
2022-08-12T07:25:27.895Z,2.15
2022-08-12T07:28:35.373Z,2.30
2022-08-12T07:31:38.890Z,2.40
2022-08-12T07:34:43.222Z,2.20
2022-08-12T07:37:49.545Z,2.50
2022-08-12T07:40:54.633Z,2.00
2022-08-12T07:44:04.643Z,1.85
2022-08-12T07:47:08.334Z,1.80
2022-08-12T07:50:23.431Z,1.90
2022-08-12T07:53:26.527Z,2.00
2022-08-12T07:56:31.223Z,1.60
2022-08-12T07:59:35.774Z,4.10
2022-08-12T08:02:38.876Z,2.47
2022-08-12T08:05:46.163Z,1.45
2022-08-12T08:08:48.930Z,1.50
2022-08-12T08:12:18.577Z,1.50
2022-08-12T08:15:51.123Z,1.60
2022-08-12T08:18:50.252Z,1.77
2022-08-12T08:21:55.053Z,1.50
2022-08-12T08:24:58.732Z,1.50
2022-08-12T08:28:03.242Z,1.40
2022-08-12T08:31:07.435Z,1.58
2022-08-12T08:34:27.716Z,1.40
2022-08-12T08:37:37.202Z,1.50
2022-08-12T08:41:00.093Z,1.30
2022-08-12T08:44:03.225Z,3.90
2022-08-12T08:47:07.659Z,1.42
2022-08-12T08:50:10.979Z,4.90
2022-08-12T08:53:13.811Z,2.30
2022-08-12T08:56:16.537Z,1.80
2022-08-12T09:05:11.707Z,1.50
2022-08-12T09:08:09.019Z,5.13
2022-08-12T09:12:07.243Z,4.25
2022-08-12T09:14:56.118Z,1.67
2022-08-12T09:18:26.661Z,1.30
2022-08-12T09:21:54.613Z,1.55
2022-08-12T09:25:01.352Z,1.20
2022-08-12T09:28:10.699Z,1.40
2022-08-12T09:32:06.748Z,1.30
2022-08-12T09:34:41.830Z,1.10
2022-08-12T09:37:58.120Z,1.30
2022-08-12T09:42:09.028Z,1.10
2022-08-12T09:44:45.227Z,1.02
2022-08-12T09:47:59.351Z,1.13
2022-08-12T09:51:02.978Z,1.10
2022-08-12T09:54:30.957Z,1.27
2022-08-12T09:58:50.927Z,1.00
2022-08-12T10:00:54.878Z,1.40
2022-08-12T10:04:04.376Z,1.50
2022-08-12T10:07:23.039Z,1.40
2022-08-12T10:10:30.321Z,1.33
2022-08-12T10:13:44.880Z,1.10
2022-08-12T10:16:47.880Z,1.25
2022-08-12T10:19:53.097Z,2.40
2022-08-12T10:23:00.126Z,1.63
2022-08-12T10:26:36.960Z,1.38
2022-08-12T10:30:38.461Z,1.47
2022-08-12T10:33:18.053Z,1.30
2022-08-12T10:36:39.919Z,1.40
2022-08-12T10:40:01.575Z,1.40
2022-08-12T10:43:24.751Z,1.35
2022-08-12T10:46:31.388Z,1.20
2022-08-12T10:50:03.520Z,1.17
2022-08-12T10:53:00.288Z,1.23
2022-08-12T10:56:03.065Z,1.10
2022-08-12T10:59:10.928Z,1.40
2022-08-12T11:04:27.267Z,1.50
2022-08-12T11:07:08.364Z,1.08
2022-08-12T11:09:02.405Z,1.20
2022-08-12T11:12:55.254Z,1.13
2022-08-12T11:16:19.635Z,1.15
2022-08-12T11:19:02.600Z,1.27
2022-08-12T11:22:06.150Z,1.20
2022-08-12T11:25:11.508Z,1.13
2022-08-12T11:28:15.897Z,1.25
2022-08-12T11:31:18.851Z,1.30
2022-08-12T11:34:53.025Z,1.50
2022-08-12T11:37:59.013Z,1.33
2022-08-12T11:41:04.083Z,1.50
2022-08-12T11:44:31.978Z,1.38
2022-08-12T11:47:29.810Z,1.42
2022-08-12T11:50:35.177Z,1.38
2022-08-12T11:53:58.341Z,1.60
2022-08-12T11:57:52.468Z,1.40
2022-08-12T12:03:49.242Z,1.55
2022-08-12T12:06:53.843Z,1.60
2022-08-12T12:09:56.975Z,1.50
2022-08-12T12:12:59.812Z,1.50
2022-08-12T12:16:02.658Z,1.20
2022-08-12T12:19:10.194Z,1.42
2022-08-12T12:22:15.700Z,1.42
2022-08-12T12:25:19.708Z,1.40
2022-08-12T12:28:37.035Z,1.57
2022-08-12T12:32:10.078Z,1.45
2022-08-12T12:35:14.271Z,1.50
2022-08-12T12:38:28.086Z,1.63
2022-08-12T12:42:55.549Z,1.73
2022-08-12T12:44:53.923Z,1.60
2022-08-12T12:47:58.509Z,1.50
2022-08-12T12:51:48.264Z,1.30
2022-08-12T12:54:52.673Z,1.33
2022-08-12T12:57:59.985Z,1.88
2022-08-12T13:01:04.499Z,1.60
2022-08-12T13:04:12.099Z,1.30
2022-08-12T13:07:16.235Z,1.52
2022-08-12T13:10:23.971Z,1.30
2022-08-12T13:14:10.013Z,1.40
2022-08-12T13:17:02.709Z,1.50
2022-08-12T13:20:07.833Z,1.50
2022-08-12T13:23:37.302Z,1.48
2022-08-12T13:26:35.211Z,1.80
2022-08-12T13:29:40.189Z,1.40
2022-08-12T13:32:57.088Z,1.47
2022-08-12T13:36:07.135Z,1.50
2022-08-12T13:39:12.870Z,1.50
2022-08-12T13:42:22.763Z,1.70
2022-08-12T13:45:29.227Z,1.73
2022-08-12T13:48:32.013Z,1.50
2022-08-12T13:51:41.218Z,1.70
2022-08-12T13:54:44.229Z,1.70
2022-08-12T13:58:01.724Z,1.65
2022-08-12T14:01:06.110Z,1.60
2022-08-12T14:04:11.900Z,1.50
2022-08-12T14:07:14.873Z,1.48
2022-08-12T14:10:39.165Z,1.52
2022-08-12T14:14:03.305Z,1.50
2022-08-12T14:17:14.370Z,1.50
2022-08-12T14:20:23.286Z,1.70
2022-08-12T14:24:04.529Z,1.70
2022-08-12T14:26:55.049Z,1.80
2022-08-12T14:30:15.160Z,1.55
2022-08-12T14:33:20.273Z,1.65
2022-08-12T14:36:25.451Z,1.40
2022-08-12T14:39:28.956Z,1.50
2022-08-12T14:42:33.320Z,1.70
2022-08-12T14:45:49.054Z,1.63
2022-08-12T14:48:53.821Z,1.75
2022-08-12T14:52:44.211Z,1.50
2022-08-12T14:59:20.281Z,1.50
2022-08-12T15:02:25.874Z,1.90
2022-08-12T15:06:04.931Z,1.90
2022-08-12T15:08:52.454Z,1.80
2022-08-12T15:12:03.571Z,1.73
2022-08-12T15:15:08.847Z,1.83
2022-08-12T15:18:21.124Z,1.70
2022-08-12T15:21:25.350Z,1.60
2022-08-12T15:24:48.777Z,1.60
2022-08-12T15:28:03.936Z,1.73
2022-08-12T15:31:21.698Z,1.70
2022-08-12T15:34:33.257Z,1.60
2022-08-12T15:38:11.186Z,1.73
2022-08-12T15:41:00.703Z,1.60
2022-08-12T15:44:36.856Z,1.73
2022-08-12T15:47:27.052Z,1.77
2022-08-12T15:50:52.844Z,1.70
2022-08-12T15:54:33.544Z,1.95
2022-08-12T15:57:43.136Z,1.80
2022-08-12T16:00:53.378Z,1.70
2022-08-12T16:04:00.456Z,1.73
2022-08-12T16:07:08.857Z,1.90
2022-08-12T16:10:11.953Z,1.98
2022-08-12T16:13:32.221Z,2.00
2022-08-12T16:16:37.211Z,1.83
2022-08-12T16:20:05.318Z,1.95
2022-08-12T16:23:35.739Z,1.85
2022-08-12T16:26:36.721Z,2.10
2022-08-12T16:29:52.460Z,2.10
2022-08-12T16:32:57.129Z,2.10
2022-08-12T16:36:00.070Z,2.17
2022-08-12T16:39:05.980Z,2.28
2022-08-12T16:42:08.757Z,2.20
2022-08-12T16:45:14.062Z,2.40
2022-08-12T16:48:34.696Z,2.20
2022-08-12T16:51:41.776Z,2.22
2022-08-12T16:54:47.950Z,2.40
2022-08-12T16:57:52.025Z,2.28
2022-08-12T17:01:02.139Z,2.30
2022-08-12T17:04:08.396Z,2.20
2022-08-12T17:07:16.964Z,2.20
2022-08-12T17:10:36.490Z,2.42
2022-08-12T17:13:53.147Z,2.00
2022-08-12T17:16:58.376Z,2.60
2022-08-12T17:20:35.543Z,2.30
2022-08-12T17:23:48.071Z,2.13
2022-08-12T17:26:53.873Z,2.45
2022-08-12T17:30:00.944Z,2.42
2022-08-12T17:33:06.822Z,2.20
2022-08-12T17:36:10.477Z,2.20
2022-08-12T17:39:13.853Z,2.55
2022-08-12T17:42:32.784Z,2.28
2022-08-12T17:45:42.222Z,2.20
2022-08-12T17:48:55.182Z,2.30
2022-08-12T17:52:02.397Z,2.40
2022-08-12T17:55:40.454Z,2.30
2022-08-12T17:58:35.641Z,2.40
2022-08-12T18:01:45.376Z,2.60
2022-08-12T18:05:04.823Z,2.15
2022-08-12T18:08:11.205Z,2.30
2022-08-12T18:12:03.054Z,2.10
2022-08-12T18:15:00.371Z,2.40
2022-08-12T18:18:04.093Z,2.22
2022-08-12T18:21:08.575Z,2.40
2022-08-12T18:24:22.124Z,2.63
2022-08-12T18:27:30.812Z,2.90
2022-08-12T18:30:52.943Z,2.50
2022-08-12T18:34:00.902Z,2.70
2022-08-12T18:37:26.924Z,2.40
2022-08-12T18:40:46.179Z,2.70
2022-08-12T18:43:59.553Z,2.50
2022-08-12T18:47:10.486Z,2.53
2022-08-12T18:50:16.274Z,2.40
2022-08-12T18:53:31.013Z,2.40
2022-08-12T18:56:45.265Z,2.38
2022-08-12T19:00:00.784Z,2.50
2022-08-12T19:03:16.628Z,2.42
2022-08-12T19:06:38.306Z,2.50
2022-08-12T19:09:57.733Z,2.70
2022-08-12T19:13:24.182Z,2.60
2022-08-12T19:16:28.392Z,2.43
2022-08-12T19:19:38.858Z,2.63
2022-08-12T19:22:57.715Z,2.80
2022-08-12T19:26:03.030Z,2.90
2022-08-12T19:29:07.593Z,2.70
2022-08-12T19:32:13.799Z,2.67
2022-08-12T19:36:06.508Z,5.72
2022-08-12T19:38:56.301Z,3.78
2022-08-12T19:42:02.605Z,3.00
2022-08-12T19:45:12.411Z,2.70
2022-08-12T19:48:20.627Z,2.63
2022-08-12T19:51:33.521Z,2.90
2022-08-12T19:54:38.747Z,3.60
2022-08-12T19:58:01.590Z,3.70
2022-08-12T20:01:10.830Z,3.83
2022-08-12T20:04:14.423Z,3.40
2022-08-12T20:07:23.804Z,4.85
2022-08-12T20:10:35.521Z,4.07
2022-08-12T20:13:42.166Z,3.85
2022-08-12T20:16:51.141Z,3.60
2022-08-12T20:20:17.042Z,4.43
2022-08-12T20:23:37.197Z,4.20
2022-08-12T20:26:54.588Z,3.50
2022-08-12T20:29:59.531Z,3.50
2022-08-12T20:33:03.201Z,3.60
2022-08-12T20:36:40.281Z,3.30
2022-08-12T20:39:53.275Z,3.38
2022-08-12T20:42:56.616Z,3.30
2022-08-12T20:45:59.440Z,3.35
2022-08-12T20:49:14.815Z,3.30
2022-08-12T20:52:20.176Z,3.13
2022-08-12T20:55:43.044Z,3.10
2022-08-12T20:58:46.983Z,3.10
2022-08-12T21:01:54.228Z,3.10
2022-08-12T21:05:19.483Z,3.20
2022-08-12T21:08:26.736Z,2.87
2022-08-12T21:11:32.459Z,3.60
2022-08-12T21:14:39.700Z,3.42
2022-08-12T21:18:11.593Z,3.38
2022-08-12T21:21:46.996Z,3.50
2022-08-12T21:24:47.294Z,3.43
2022-08-12T21:27:59.242Z,3.42
2022-08-12T21:32:34.592Z,3.10
2022-08-12T21:34:29.587Z,3.40
2022-08-12T21:37:37.200Z,2.90
2022-08-12T21:40:52.062Z,3.33
2022-08-12T21:44:01.552Z,2.83
2022-08-12T21:47:12.113Z,2.90
2022-08-12T21:50:29.126Z,2.78
2022-08-12T21:54:06.726Z,2.70
2022-08-12T21:56:55.053Z,2.97
2022-08-12T21:59:59.132Z,2.97
2022-08-12T22:04:01.661Z,2.80
2022-08-12T22:07:07.843Z,2.80
2022-08-12T22:10:12.562Z,2.67
2022-08-12T22:14:07.659Z,2.87
2022-08-12T22:16:46.758Z,2.88
2022-08-12T22:19:49.983Z,2.65
2022-08-12T22:22:55.949Z,2.72
2022-08-12T22:25:59.680Z,2.90
2022-08-12T22:29:20.178Z,2.87
2022-08-12T22:32:26.408Z,2.90
2022-08-12T22:35:56.682Z,2.90
2022-08-12T22:38:59.884Z,2.88
2022-08-12T22:42:20.489Z,2.83
2022-08-12T22:45:48.184Z,2.60
2022-08-12T22:48:53.708Z,3.20
2022-08-12T22:52:00.819Z,2.63
2022-08-12T22:55:07.089Z,2.80
2022-08-12T22:58:12.555Z,2.92
2022-08-12T23:01:21.272Z,2.80
2022-08-12T23:04:40.703Z,2.78
2022-08-12T23:07:58.720Z,2.85
2022-08-12T23:11:04.733Z,2.72
2022-08-12T23:14:08.919Z,2.85
2022-08-12T23:17:21.146Z,2.63
2022-08-12T23:20:37.243Z,2.78
2022-08-12T23:24:09.127Z,2.80
2022-08-12T23:27:21.845Z,2.60
2022-08-12T23:30:32.272Z,2.88
2022-08-12T23:34:02.458Z,2.23
2022-08-12T23:37:02.051Z,2.70
2022-08-12T23:40:15.583Z,2.83
2022-08-12T23:43:20.902Z,2.70
2022-08-12T23:46:27.461Z,2.38
2022-08-12T23:49:57.735Z,2.90
2022-08-12T23:52:56.164Z,2.63
2022-08-12T23:55:59.538Z,2.80
2022-08-12T23:59:03.248Z,2.80
